TimeEST,TemperatureF,Dew PointF,Humidity,Sea Level PressureIn,VisibilityMPH,Wind Direction,Wind SpeedMPH,Gust SpeedMPH,PrecipitationIn,Events,Conditions,WindDirDegrees,DateUTC
12:31 AM,55.4,51.8,88,29.94,9.0,SSW,19.6,25.3,N/A,,Overcast,210,2012-12-05 05:31:00
12:54 AM,55.0,52.0,89,29.94,9.0,SSW,15.0,27.6,N/A,,Overcast,200,2012-12-05 05:54:00
1:54 AM,54.0,51.1,90,29.92,10.0,SSW,16.1,-,N/A,,Mostly Cloudy,210,2012-12-05 06:54:00
2:22 AM,53.6,51.8,94,29.89,10.0,SSW,13.8,-,N/A,,Mostly Cloudy,200,2012-12-05 07:22:00
2:54 AM,53.1,51.1,93,29.88,10.0,SSW,11.5,-,N/A,,Mostly Cloudy,200,2012-12-05 07:54:00
3:54 AM,54.0,51.1,90,29.86,10.0,SW,13.8,-,0.00,Rain,Light Rain,220,2012-12-05 08:54:00
4:20 AM,53.6,51.8,94,29.85,10.0,SW,13.8,-,0.00,Rain,Light Rain,230,2012-12-05 09:20:00
4:42 AM,53.6,51.8,94,29.86,10.0,West,20.7,28.8,0.00,Rain,Light Rain,260,2012-12-05 09:42:00
4:52 AM,53.6,50.0,88,29.86,9.0,West,20.7,26.5,0.00,Rain,Light Rain,270,2012-12-05 09:52:00
4:54 AM,53.1,50.0,89,29.87,8.0,West,18.4,26.5,0.00,Rain,Light Rain,270,2012-12-05 09:54:00
5:09 AM,51.8,48.2,88,29.86,10.0,West,11.5,21.9,0.00,,Overcast,270,2012-12-05 10:09:00
5:17 AM,51.8,48.2,88,29.87,10.0,West,11.5,-,0.01,,Overcast,270,2012-12-05 10:17:00
5:54 AM,51.1,46.0,83,29.88,10.0,WNW,16.1,23.0,0.01,Rain,Rain,290,2012-12-05 10:54:00
6:54 AM,48.0,44.1,86,29.90,10.0,West,17.3,27.6,0.01,,Overcast,280,2012-12-05 11:54:00
7:54 AM,48.0,41.0,77,29.92,10.0,WNW,13.8,20.7,N/A,,Overcast,290,2012-12-05 12:54:00
9:54 AM,48.0,35.1,61,29.94,10.0,WNW,13.8,21.9,N/A,,Clear,290,2012-12-05 14:54:00
10:54 AM,48.9,33.1,54,29.92,10.0,WNW,19.6,33.4,N/A,,Clear,300,2012-12-05 15:54:00
11:54 AM,48.9,32.0,52,29.92,10.0,West,18.4,27.6,N/A,,Clear,280,2012-12-05 16:54:00
12:54 PM,48.0,32.0,54,29.91,10.0,WNW,17.3,31.1,N/A,,Partly Cloudy,290,2012-12-05 17:54:00
1:54 PM,46.0,32.0,58,29.92,10.0,WNW,16.1,27.6,N/A,,Partly Cloudy,290,2012-12-05 18:54:00
2:54 PM,42.1,27.0,55,29.95,10.0,West,23.0,36.8,N/A,,Clear,280,2012-12-05 19:54:00
3:54 PM,39.0,25.0,57,29.98,10.0,WNW,20.7,31.1,N/A,,Partly Cloudy,300,2012-12-05 20:54:00
4:54 PM,37.9,23.0,55,30.00,10.0,WNW,15.0,28.8,N/A,,Overcast,300,2012-12-05 21:54:00
5:54 PM,37.0,19.9,50,30.03,10.0,WNW,18.4,31.1,N/A,,Overcast,300,2012-12-05 22:54:00
6:54 PM,36.0,19.0,50,30.04,10.0,NW,19.6,27.6,N/A,,Overcast,310,2012-12-05 23:54:00
7:54 PM,35.1,18.0,50,30.06,10.0,NNW,11.5,19.6,N/A,,Overcast,330,2012-12-06 00:54:00
8:54 PM,33.1,16.0,50,30.09,10.0,NW,13.8,25.3,N/A,,Mostly Cloudy,320,2012-12-06 01:54:00
9:54 PM,30.9,15.1,52,30.11,10.0,NW,13.8,23.0,N/A,,Partly Cloudy,310,2012-12-06 02:54:00
10:54 PM,30.9,16.0,54,30.12,10.0,NW,12.7,19.6,N/A,,Overcast,320,2012-12-06 03:54:00
11:54 PM,30.0,16.0,56,30.13,10.0,NW,16.1,23.0,N/A,,Overcast,320,2012-12-06 04:54:00